sensor_id;sensor_type;location;lat;lon;timestamp;temperature;humidity
11229;DHT22;5671;47.936;8.716;2023-02-01T00:01:06;-1.00;85.40
11229;DHT22;5671;47.936;8.716;2023-02-01T00:03:32;-1.10;85.90
11229;DHT22;5671;47.936;8.716;2023-02-01T00:06:00;-1.10;85.80
11229;DHT22;5671;47.936;8.716;2023-02-01T00:08:27;-1.20;86.70
11229;DHT22;5671;47.936;8.716;2023-02-01T00:11:01;-1.20;87.40
11229;DHT22;5671;47.936;8.716;2023-02-01T00:13:30;-1.20;87.70
11229;DHT22;5671;47.936;8.716;2023-02-01T00:16:03;-1.30;87.10
11229;DHT22;5671;47.936;8.716;2023-02-01T00:18:31;-1.30;86.40
11229;DHT22;5671;47.936;8.716;2023-02-01T00:20:58;-1.30;86.80
11229;DHT22;5671;47.936;8.716;2023-02-01T00:23:25;-1.30;86.50
11229;DHT22;5671;47.936;8.716;2023-02-01T00:25:52;-1.40;86.40
11229;DHT22;5671;47.936;8.716;2023-02-01T00:28:19;-1.40;86.50
11229;DHT22;5671;47.936;8.716;2023-02-01T00:30:55;-1.40;86.90
11229;DHT22;5671;47.936;8.716;2023-02-01T00:33:22;-1.40;87.80
11229;DHT22;5671;47.936;8.716;2023-02-01T00:35:49;-1.40;88.30
11229;DHT22;5671;47.936;8.716;2023-02-01T00:38:16;-1.40;87.90
11229;DHT22;5671;47.936;8.716;2023-02-01T00:40:43;-1.40;87.80
11229;DHT22;5671;47.936;8.716;2023-02-01T00:43:10;-1.40;88.10
11229;DHT22;5671;47.936;8.716;2023-02-01T00:45:36;-1.40;88.20
11229;DHT22;5671;47.936;8.716;2023-02-01T00:48:05;-1.30;88.40
11229;DHT22;5671;47.936;8.716;2023-02-01T00:50:32;-1.30;88.90
11229;DHT22;5671;47.936;8.716;2023-02-01T00:52:59;-1.20;89.50
11229;DHT22;5671;47.936;8.716;2023-02-01T00:55:26;-1.10;89.70
11229;DHT22;5671;47.936;8.716;2023-02-01T00:57:53;-1.10;89.60
11229;DHT22;5671;47.936;8.716;2023-02-01T01:00:20;-1.10;89.60
11229;DHT22;5671;47.936;8.716;2023-02-01T01:02:47;-1.10;88.70
11229;DHT22;5671;47.936;8.716;2023-02-01T01:05:15;-1.10;88.00
11229;DHT22;5671;47.936;8.716;2023-02-01T01:07:42;-1.10;87.70
11229;DHT22;5671;47.936;8.716;2023-02-01T01:10:09;-1.10;87.30
11229;DHT22;5671;47.936;8.716;2023-02-01T01:12:36;-1.10;87.20
11229;DHT22;5671;47.936;8.716;2023-02-01T01:15:04;-1.10;87.30
11229;DHT22;5671;47.936;8.716;2023-02-01T01:17:31;-1.00;87.70
11229;DHT22;5671;47.936;8.716;2023-02-01T01:19:58;-1.00;88.20
11229;DHT22;5671;47.936;8.716;2023-02-01T01:22:26;-1.00;88.30
11229;DHT22;5671;47.936;8.716;2023-02-01T01:24:53;-1.00;88.30
11229;DHT22;5671;47.936;8.716;2023-02-01T01:27:20;-1.00;88.10
11229;DHT22;5671;47.936;8.716;2023-02-01T01:29:49;-0.90;87.90
11229;DHT22;5671;47.936;8.716;2023-02-01T01:32:16;-0.90;87.70
11229;DHT22;5671;47.936;8.716;2023-02-01T01:34:43;-0.90;87.50
11229;DHT22;5671;47.936;8.716;2023-02-01T01:37:09;-0.90;87.60
11229;DHT22;5671;47.936;8.716;2023-02-01T01:39:38;-0.90;87.10
11229;DHT22;5671;47.936;8.716;2023-02-01T01:42:04;-0.90;86.60
11229;DHT22;5671;47.936;8.716;2023-02-01T01:44:57;-0.90;86.60
11229;DHT22;5671;47.936;8.716;2023-02-01T01:47:25;-0.90;87.10
11229;DHT22;5671;47.936;8.716;2023-02-01T01:49:53;-0.90;87.60
11229;DHT22;5671;47.936;8.716;2023-02-01T01:52:20;-0.90;87.80
11229;DHT22;5671;47.936;8.716;2023-02-01T01:54:51;-0.90;88.30
11229;DHT22;5671;47.936;8.716;2023-02-01T01:57:23;-0.90;88.90
11229;DHT22;5671;47.936;8.716;2023-02-01T01:59:59;-0.80;88.70
11229;DHT22;5671;47.936;8.716;2023-02-01T02:02:27;-0.80;88.90
11229;DHT22;5671;47.936;8.716;2023-02-01T02:04:54;-0.80;88.90
11229;DHT22;5671;47.936;8.716;2023-02-01T02:07:24;-0.80;88.60
11229;DHT22;5671;47.936;8.716;2023-02-01T02:09:53;-0.80;88.60
11229;DHT22;5671;47.936;8.716;2023-02-01T02:12:21;-0.80;88.50
11229;DHT22;5671;47.936;8.716;2023-02-01T02:14:48;-0.80;88.10
11229;DHT22;5671;47.936;8.716;2023-02-01T02:17:30;-0.80;87.70
11229;DHT22;5671;47.936;8.716;2023-02-01T02:20:30;-0.80;87.50
11229;DHT22;5671;47.936;8.716;2023-02-01T02:23:17;-0.80;87.20
11229;DHT22;5671;47.936;8.716;2023-02-01T02:26:09;-0.80;87.10
11229;DHT22;5671;47.936;8.716;2023-02-01T02:29:08;-0.80;87.30
11229;DHT22;5671;47.936;8.716;2023-02-01T02:31:52;-0.80;87.20
11229;DHT22;5671;47.936;8.716;2023-02-01T02:34:25;-0.90;86.70
11229;DHT22;5671;47.936;8.716;2023-02-01T02:37:04;-0.90;86.30
11229;DHT22;5671;47.936;8.716;2023-02-01T02:39:41;-1.00;86.10
11229;DHT22;5671;47.936;8.716;2023-02-01T02:42:16;-1.00;86.60
11229;DHT22;5671;47.936;8.716;2023-02-01T02:45:08;-1.10;86.80
11229;DHT22;5671;47.936;8.716;2023-02-01T02:47:57;-1.10;86.90
11229;DHT22;5671;47.936;8.716;2023-02-01T02:50:34;-1.10;87.30
11229;DHT22;5671;47.936;8.716;2023-02-01T02:53:23;-1.10;87.50
11229;DHT22;5671;47.936;8.716;2023-02-01T02:56:12;-1.20;88.20
11229;DHT22;5671;47.936;8.716;2023-02-01T02:58:58;-1.10;88.40
11229;DHT22;5671;47.936;8.716;2023-02-01T03:01:42;-1.10;88.30
11229;DHT22;5671;47.936;8.716;2023-02-01T03:04:27;-1.10;87.90
11229;DHT22;5671;47.936;8.716;2023-02-01T03:06:55;-1.10;87.90
11229;DHT22;5671;47.936;8.716;2023-02-01T03:09:26;-1.10;88.00
11229;DHT22;5671;47.936;8.716;2023-02-01T03:12:01;-1.10;87.80
11229;DHT22;5671;47.936;8.716;2023-02-01T03:14:48;-1.00;88.10
11229;DHT22;5671;47.936;8.716;2023-02-01T03:17:21;-1.10;88.00
11229;DHT22;5671;47.936;8.716;2023-02-01T03:19:51;-1.00;87.90
11229;DHT22;5671;47.936;8.716;2023-02-01T03:22:21;-1.00;88.00
11229;DHT22;5671;47.936;8.716;2023-02-01T03:24:51;-1.00;88.30
11229;DHT22;5671;47.936;8.716;2023-02-01T03:27:22;-1.00;89.10
11229;DHT22;5671;47.936;8.716;2023-02-01T03:29:56;-0.90;89.20
11229;DHT22;5671;47.936;8.716;2023-02-01T03:32:24;-0.90;88.80
11229;DHT22;5671;47.936;8.716;2023-02-01T03:34:52;-0.90;88.60
11229;DHT22;5671;47.936;8.716;2023-02-01T03:37:24;-0.90;88.60
11229;DHT22;5671;47.936;8.716;2023-02-01T03:39:56;-0.90;88.70
11229;DHT22;5671;47.936;8.716;2023-02-01T03:42:27;-0.80;88.60
11229;DHT22;5671;47.936;8.716;2023-02-01T03:45:02;-0.80;88.50
11229;DHT22;5671;47.936;8.716;2023-02-01T03:47:34;-0.80;88.60
11229;DHT22;5671;47.936;8.716;2023-02-01T03:50:05;-0.80;88.80
11229;DHT22;5671;47.936;8.716;2023-02-01T03:52:39;-0.70;89.10
11229;DHT22;5671;47.936;8.716;2023-02-01T03:55:08;-0.70;89.10
11229;DHT22;5671;47.936;8.716;2023-02-01T03:57:41;-0.60;89.30
11229;DHT22;5671;47.936;8.716;2023-02-01T04:00:16;-0.60;89.40
11229;DHT22;5671;47.936;8.716;2023-02-01T04:02:44;-0.60;89.40
11229;DHT22;5671;47.936;8.716;2023-02-01T04:05:10;-0.50;89.30
11229;DHT22;5671;47.936;8.716;2023-02-01T04:07:39;-0.50;89.50
11229;DHT22;5671;47.936;8.716;2023-02-01T04:10:06;-0.50;89.70
11229;DHT22;5671;47.936;8.716;2023-02-01T04:12:33;-0.40;89.60
11229;DHT22;5671;47.936;8.716;2023-02-01T04:15:00;-0.40;89.50
11229;DHT22;5671;47.936;8.716;2023-02-01T04:17:28;-0.40;89.70
11229;DHT22;5671;47.936;8.716;2023-02-01T04:19:55;-0.30;89.90
11229;DHT22;5671;47.936;8.716;2023-02-01T04:22:22;-0.30;90.20
11229;DHT22;5671;47.936;8.716;2023-02-01T04:24:50;-0.30;90.20
11229;DHT22;5671;47.936;8.716;2023-02-01T04:27:17;-0.30;90.30
11229;DHT22;5671;47.936;8.716;2023-02-01T04:29:44;-0.10;91.70
11229;DHT22;5671;47.936;8.716;2023-02-01T04:32:11;0.00;91.90
11229;DHT22;5671;47.936;8.716;2023-02-01T04:34:38;0.00;91.90
11229;DHT22;5671;47.936;8.716;2023-02-01T04:37:05;0.00;92.10
11229;DHT22;5671;47.936;8.716;2023-02-01T04:39:32;0.20;92.20
11229;DHT22;5671;47.936;8.716;2023-02-01T04:42:00;0.20;92.20
11229;DHT22;5671;47.936;8.716;2023-02-01T04:44:27;0.20;92.10
11229;DHT22;5671;47.936;8.716;2023-02-01T04:46:54;0.20;92.00
11229;DHT22;5671;47.936;8.716;2023-02-01T04:49:21;0.30;92.00
11229;DHT22;5671;47.936;8.716;2023-02-01T04:51:48;0.40;91.90
11229;DHT22;5671;47.936;8.716;2023-02-01T04:54:15;0.40;91.70
11229;DHT22;5671;47.936;8.716;2023-02-01T04:56:42;0.40;91.50
11229;DHT22;5671;47.936;8.716;2023-02-01T04:59:11;0.40;91.30
11229;DHT22;5671;47.936;8.716;2023-02-01T05:01:38;0.40;91.10
11229;DHT22;5671;47.936;8.716;2023-02-01T05:04:05;0.40;90.90
11229;DHT22;5671;47.936;8.716;2023-02-01T05:06:32;0.40;90.70
11229;DHT22;5671;47.936;8.716;2023-02-01T05:08:59;0.40;90.50
11229;DHT22;5671;47.936;8.716;2023-02-01T05:11:26;0.40;90.50
11229;DHT22;5671;47.936;8.716;2023-02-01T05:14:11;0.40;90.20
11229;DHT22;5671;47.936;8.716;2023-02-01T05:16:38;0.40;90.20
11229;DHT22;5671;47.936;8.716;2023-02-01T05:19:05;0.40;90.00
11229;DHT22;5671;47.936;8.716;2023-02-01T05:21:32;0.40;90.00
11229;DHT22;5671;47.936;8.716;2023-02-01T05:23:58;0.40;89.90
11229;DHT22;5671;47.936;8.716;2023-02-01T05:26:39;0.40;90.00
11229;DHT22;5671;47.936;8.716;2023-02-01T05:29:07;0.40;90.10
11229;DHT22;5671;47.936;8.716;2023-02-01T05:31:35;0.40;90.10
11229;DHT22;5671;47.936;8.716;2023-02-01T05:34:02;0.40;90.20
11229;DHT22;5671;47.936;8.716;2023-02-01T05:36:29;0.30;90.20
11229;DHT22;5671;47.936;8.716;2023-02-01T05:38:56;0.40;90.30
11229;DHT22;5671;47.936;8.716;2023-02-01T05:41:23;0.30;90.30
11229;DHT22;5671;47.936;8.716;2023-02-01T05:43:50;0.40;90.30
11229;DHT22;5671;47.936;8.716;2023-02-01T05:46:17;0.40;90.20
11229;DHT22;5671;47.936;8.716;2023-02-01T05:48:45;0.40;90.20
11229;DHT22;5671;47.936;8.716;2023-02-01T05:51:12;0.40;90.20
11229;DHT22;5671;47.936;8.716;2023-02-01T05:53:39;0.40;90.20
11229;DHT22;5671;47.936;8.716;2023-02-01T05:56:06;0.40;90.30
11229;DHT22;5671;47.936;8.716;2023-02-01T05:58:34;0.40;90.30
11229;DHT22;5671;47.936;8.716;2023-02-01T06:01:04;0.40;90.50
11229;DHT22;5671;47.936;8.716;2023-02-01T06:03:34;0.30;90.70
11229;DHT22;5671;47.936;8.716;2023-02-01T06:06:02;0.30;90.80
11229;DHT22;5671;47.936;8.716;2023-02-01T06:08:29;0.30;91.00
11229;DHT22;5671;47.936;8.716;2023-02-01T06:11:00;0.30;91.20
11229;DHT22;5671;47.936;8.716;2023-02-01T06:13:27;0.30;91.30
11229;DHT22;5671;47.936;8.716;2023-02-01T06:15:54;0.30;91.30
11229;DHT22;5671;47.936;8.716;2023-02-01T06:18:22;0.30;91.40
11229;DHT22;5671;47.936;8.716;2023-02-01T06:20:53;0.30;91.50
11229;DHT22;5671;47.936;8.716;2023-02-01T06:23:21;0.30;91.60
11229;DHT22;5671;47.936;8.716;2023-02-01T06:25:49;0.30;91.60
11229;DHT22;5671;47.936;8.716;2023-02-01T06:28:16;0.30;91.70
11229;DHT22;5671;47.936;8.716;2023-02-01T06:30:43;0.30;91.70
11229;DHT22;5671;47.936;8.716;2023-02-01T06:33:11;0.30;91.70
11229;DHT22;5671;47.936;8.716;2023-02-01T06:35:40;0.30;91.80
11229;DHT22;5671;47.936;8.716;2023-02-01T06:38:09;0.30;91.80
11229;DHT22;5671;47.936;8.716;2023-02-01T06:40:37;0.30;91.80
11229;DHT22;5671;47.936;8.716;2023-02-01T06:43:04;0.30;91.70
11229;DHT22;5671;47.936;8.716;2023-02-01T06:45:31;0.30;91.80
11229;DHT22;5671;47.936;8.716;2023-02-01T06:47:59;0.30;91.70
11229;DHT22;5671;47.936;8.716;2023-02-01T06:50:26;0.30;91.70
11229;DHT22;5671;47.936;8.716;2023-02-01T06:52:53;0.30;91.70
11229;DHT22;5671;47.936;8.716;2023-02-01T06:55:20;0.30;91.60
11229;DHT22;5671;47.936;8.716;2023-02-01T06:57:51;0.30;91.60
11229;DHT22;5671;47.936;8.716;2023-02-01T07:00:19;0.30;91.60
11229;DHT22;5671;47.936;8.716;2023-02-01T07:02:46;0.30;91.60
11229;DHT22;5671;47.936;8.716;2023-02-01T07:05:13;0.30;91.60
11229;DHT22;5671;47.936;8.716;2023-02-01T07:07:40;0.30;91.60
11229;DHT22;5671;47.936;8.716;2023-02-01T07:10:08;0.30;91.50
11229;DHT22;5671;47.936;8.716;2023-02-01T07:12:35;0.30;91.50
11229;DHT22;5671;47.936;8.716;2023-02-01T07:15:04;0.30;91.60
11229;DHT22;5671;47.936;8.716;2023-02-01T07:17:31;0.30;91.50
11229;DHT22;5671;47.936;8.716;2023-02-01T07:19:58;0.30;91.50
11229;DHT22;5671;47.936;8.716;2023-02-01T07:22:25;0.30;91.40
11229;DHT22;5671;47.936;8.716;2023-02-01T07:24:52;0.30;91.40
11229;DHT22;5671;47.936;8.716;2023-02-01T07:27:19;0.30;91.40
11229;DHT22;5671;47.936;8.716;2023-02-01T07:29:46;0.30;91.40
11229;DHT22;5671;47.936;8.716;2023-02-01T07:32:14;0.30;91.30
11229;DHT22;5671;47.936;8.716;2023-02-01T07:34:43;0.30;91.50
11229;DHT22;5671;47.936;8.716;2023-02-01T07:37:10;0.30;91.40
11229;DHT22;5671;47.936;8.716;2023-02-01T07:39:37;0.30;91.50
11229;DHT22;5671;47.936;8.716;2023-02-01T07:42:04;0.30;91.50
11229;DHT22;5671;47.936;8.716;2023-02-01T07:44:31;0.30;91.50
11229;DHT22;5671;47.936;8.716;2023-02-01T07:46:57;0.30;91.50
11229;DHT22;5671;47.936;8.716;2023-02-01T07:49:26;0.30;91.50
11229;DHT22;5671;47.936;8.716;2023-02-01T07:51:52;0.30;91.60
11229;DHT22;5671;47.936;8.716;2023-02-01T07:54:19;0.30;91.50
11229;DHT22;5671;47.936;8.716;2023-02-01T07:56:46;0.30;91.50
11229;DHT22;5671;47.936;8.716;2023-02-01T07:59:13;0.30;91.40
11229;DHT22;5671;47.936;8.716;2023-02-01T08:01:40;0.30;91.40
11229;DHT22;5671;47.936;8.716;2023-02-01T08:04:09;0.30;91.30
11229;DHT22;5671;47.936;8.716;2023-02-01T08:06:39;0.40;91.20
11229;DHT22;5671;47.936;8.716;2023-02-01T08:09:07;0.40;91.00
11229;DHT22;5671;47.936;8.716;2023-02-01T08:11:34;0.40;90.70
11229;DHT22;5671;47.936;8.716;2023-02-01T08:14:03;0.40;90.50
11229;DHT22;5671;47.936;8.716;2023-02-01T08:16:31;0.50;90.50
11229;DHT22;5671;47.936;8.716;2023-02-01T08:18:59;0.50;90.40
11229;DHT22;5671;47.936;8.716;2023-02-01T08:21:27;0.50;90.00
11229;DHT22;5671;47.936;8.716;2023-02-01T08:24:03;0.50;89.80
11229;DHT22;5671;47.936;8.716;2023-02-01T08:26:31;0.50;89.80
11229;DHT22;5671;47.936;8.716;2023-02-01T08:28:59;0.50;89.70
11229;DHT22;5671;47.936;8.716;2023-02-01T08:31:28;0.50;89.70
11229;DHT22;5671;47.936;8.716;2023-02-01T08:33:57;0.50;89.80
11229;DHT22;5671;47.936;8.716;2023-02-01T08:36:26;0.50;89.80
11229;DHT22;5671;47.936;8.716;2023-02-01T08:38:53;0.50;89.80
11229;DHT22;5671;47.936;8.716;2023-02-01T08:41:23;0.50;89.70
11229;DHT22;5671;47.936;8.716;2023-02-01T08:43:50;0.50;89.50
11229;DHT22;5671;47.936;8.716;2023-02-01T08:46:18;0.60;89.50
11229;DHT22;5671;47.936;8.716;2023-02-01T08:48:45;0.50;89.20
11229;DHT22;5671;47.936;8.716;2023-02-01T08:51:14;0.50;89.10
11229;DHT22;5671;47.936;8.716;2023-02-01T08:53:42;0.50;89.00
11229;DHT22;5671;47.936;8.716;2023-02-01T08:56:10;0.50;89.00
11229;DHT22;5671;47.936;8.716;2023-02-01T08:58:39;0.50;89.10
11229;DHT22;5671;47.936;8.716;2023-02-01T09:01:07;0.50;89.20
11229;DHT22;5671;47.936;8.716;2023-02-01T09:03:34;0.50;89.00
11229;DHT22;5671;47.936;8.716;2023-02-01T09:06:01;0.50;89.20
11229;DHT22;5671;47.936;8.716;2023-02-01T09:08:29;0.50;89.10
11229;DHT22;5671;47.936;8.716;2023-02-01T09:10:59;0.50;89.30
11229;DHT22;5671;47.936;8.716;2023-02-01T09:13:25;0.50;89.40
11229;DHT22;5671;47.936;8.716;2023-02-01T09:15:54;0.50;89.50
11229;DHT22;5671;47.936;8.716;2023-02-01T09:18:21;0.60;89.40
11229;DHT22;5671;47.936;8.716;2023-02-01T09:20:48;0.60;89.20
11229;DHT22;5671;47.936;8.716;2023-02-01T09:23:15;0.60;89.20
11229;DHT22;5671;47.936;8.716;2023-02-01T09:25:42;0.70;88.90
11229;DHT22;5671;47.936;8.716;2023-02-01T09:28:09;0.80;89.10
11229;DHT22;5671;47.936;8.716;2023-02-01T09:30:36;0.90;89.10
11229;DHT22;5671;47.936;8.716;2023-02-01T09:33:05;1.00;88.70
11229;DHT22;5671;47.936;8.716;2023-02-01T09:35:31;1.10;88.10
11229;DHT22;5671;47.936;8.716;2023-02-01T09:37:58;1.20;87.70
11229;DHT22;5671;47.936;8.716;2023-02-01T09:40:25;1.20;86.80
11229;DHT22;5671;47.936;8.716;2023-02-01T09:43:16;1.30;85.70
11229;DHT22;5671;47.936;8.716;2023-02-01T09:45:54;1.30;85.30
11229;DHT22;5671;47.936;8.716;2023-02-01T09:48:28;1.30;86.10
11229;DHT22;5671;47.936;8.716;2023-02-01T09:50:59;1.30;85.20
11229;DHT22;5671;47.936;8.716;2023-02-01T09:53:29;1.30;85.50
11229;DHT22;5671;47.936;8.716;2023-02-01T09:56:02;1.40;85.40
11229;DHT22;5671;47.936;8.716;2023-02-01T09:58:33;1.30;85.40
11229;DHT22;5671;47.936;8.716;2023-02-01T10:01:03;1.40;85.30
11229;DHT22;5671;47.936;8.716;2023-02-01T10:03:33;1.40;85.50
11229;DHT22;5671;47.936;8.716;2023-02-01T10:06:11;1.40;85.60
11229;DHT22;5671;47.936;8.716;2023-02-01T10:11:53;1.40;84.80
11229;DHT22;5671;47.936;8.716;2023-02-01T10:14:46;1.40;84.50
11229;DHT22;5671;47.936;8.716;2023-02-01T10:17:29;1.40;84.00
11229;DHT22;5671;47.936;8.716;2023-02-01T10:20:07;1.30;84.20
11229;DHT22;5671;47.936;8.716;2023-02-01T10:22:41;1.40;84.60
11229;DHT22;5671;47.936;8.716;2023-02-01T10:25:17;1.40;84.50
11229;DHT22;5671;47.936;8.716;2023-02-01T10:27:47;1.40;84.80
11229;DHT22;5671;47.936;8.716;2023-02-01T10:30:20;1.40;85.00
11229;DHT22;5671;47.936;8.716;2023-02-01T10:32:50;1.40;84.90
11229;DHT22;5671;47.936;8.716;2023-02-01T10:35:24;1.40;84.60
11229;DHT22;5671;47.936;8.716;2023-02-01T10:37:53;1.40;84.90
11229;DHT22;5671;47.936;8.716;2023-02-01T10:40:22;1.40;85.00
11229;DHT22;5671;47.936;8.716;2023-02-01T10:42:52;1.40;85.10
11229;DHT22;5671;47.936;8.716;2023-02-01T10:45:21;1.40;85.20
11229;DHT22;5671;47.936;8.716;2023-02-01T10:47:50;1.40;85.10
11229;DHT22;5671;47.936;8.716;2023-02-01T10:50:29;1.40;85.20
11229;DHT22;5671;47.936;8.716;2023-02-01T10:52:59;1.50;84.90
11229;DHT22;5671;47.936;8.716;2023-02-01T10:55:34;1.50;85.20
11229;DHT22;5671;47.936;8.716;2023-02-01T10:58:02;1.50;85.10
11229;DHT22;5671;47.936;8.716;2023-02-01T11:00:41;1.50;84.80
11229;DHT22;5671;47.936;8.716;2023-02-01T11:03:38;1.60;85.00
11229;DHT22;5671;47.936;8.716;2023-02-01T11:06:16;1.60;84.80
11229;DHT22;5671;47.936;8.716;2023-02-01T11:08:46;1.60;84.20
11229;DHT22;5671;47.936;8.716;2023-02-01T11:11:14;1.70;84.20
11229;DHT22;5671;47.936;8.716;2023-02-01T11:13:41;1.70;84.10
11229;DHT22;5671;47.936;8.716;2023-02-01T11:16:12;1.70;84.00
11229;DHT22;5671;47.936;8.716;2023-02-01T11:18:40;1.80;83.70
11229;DHT22;5671;47.936;8.716;2023-02-01T11:21:10;1.80;83.40
11229;DHT22;5671;47.936;8.716;2023-02-01T11:23:41;1.80;83.30
11229;DHT22;5671;47.936;8.716;2023-02-01T11:26:12;1.90;83.40
11229;DHT22;5671;47.936;8.716;2023-02-01T11:28:43;2.00;83.20
11229;DHT22;5671;47.936;8.716;2023-02-01T11:31:14;2.00;82.70
11229;DHT22;5671;47.936;8.716;2023-02-01T11:33:47;2.00;81.20
11229;DHT22;5671;47.936;8.716;2023-02-01T11:36:20;2.10;80.30
11229;DHT22;5671;47.936;8.716;2023-02-01T11:38:54;2.20;80.30
11229;DHT22;5671;47.936;8.716;2023-02-01T11:41:24;2.20;80.80
11229;DHT22;5671;47.936;8.716;2023-02-01T11:43:53;2.20;79.50
11229;DHT22;5671;47.936;8.716;2023-02-01T11:46:24;2.20;79.50
11229;DHT22;5671;47.936;8.716;2023-02-01T11:48:53;2.30;80.40
11229;DHT22;5671;47.936;8.716;2023-02-01T11:51:34;2.30;80.70
11229;DHT22;5671;47.936;8.716;2023-02-01T11:54:29;2.30;81.40
11229;DHT22;5671;47.936;8.716;2023-02-01T11:57:09;2.30;80.00
11229;DHT22;5671;47.936;8.716;2023-02-01T11:59:57;2.30;79.30
11229;DHT22;5671;47.936;8.716;2023-02-01T12:02:45;2.40;78.50
11229;DHT22;5671;47.936;8.716;2023-02-01T12:05:34;2.40;78.70
11229;DHT22;5671;47.936;8.716;2023-02-01T12:08:15;2.40;77.30
11229;DHT22;5671;47.936;8.716;2023-02-01T12:10:54;2.40;78.30
11229;DHT22;5671;47.936;8.716;2023-02-01T12:13:33;2.50;77.60
11229;DHT22;5671;47.936;8.716;2023-02-01T12:16:09;2.40;77.60
11229;DHT22;5671;47.936;8.716;2023-02-01T12:19:02;2.50;77.70
11229;DHT22;5671;47.936;8.716;2023-02-01T12:21:46;2.50;76.80
11229;DHT22;5671;47.936;8.716;2023-02-01T12:24:50;2.40;77.60
11229;DHT22;5671;47.936;8.716;2023-02-01T12:27:36;2.40;77.30
11229;DHT22;5671;47.936;8.716;2023-02-01T12:30:20;2.40;76.90
11229;DHT22;5671;47.936;8.716;2023-02-01T12:32:59;2.40;77.10
11229;DHT22;5671;47.936;8.716;2023-02-01T12:35:46;2.40;76.90
11229;DHT22;5671;47.936;8.716;2023-02-01T12:38:41;2.40;77.10
11229;DHT22;5671;47.936;8.716;2023-02-01T12:44:11;2.50;76.20
11229;DHT22;5671;47.936;8.716;2023-02-01T12:46:43;2.40;76.50
11229;DHT22;5671;47.936;8.716;2023-02-01T12:49:14;2.40;76.70
11229;DHT22;5671;47.936;8.716;2023-02-01T12:51:44;2.40;76.60
11229;DHT22;5671;47.936;8.716;2023-02-01T12:54:15;2.40;76.20
11229;DHT22;5671;47.936;8.716;2023-02-01T12:56:49;2.40;76.50
11229;DHT22;5671;47.936;8.716;2023-02-01T12:59:25;2.40;76.50
11229;DHT22;5671;47.936;8.716;2023-02-01T13:01:56;2.40;76.30
11229;DHT22;5671;47.936;8.716;2023-02-01T13:04:29;2.40;76.70
11229;DHT22;5671;47.936;8.716;2023-02-01T13:07:03;2.40;76.70
11229;DHT22;5671;47.936;8.716;2023-02-01T13:09:37;2.40;77.10
11229;DHT22;5671;47.936;8.716;2023-02-01T13:12:12;2.40;76.10
11229;DHT22;5671;47.936;8.716;2023-02-01T13:14:44;2.50;76.40
11229;DHT22;5671;47.936;8.716;2023-02-01T13:17:16;2.40;76.00
11229;DHT22;5671;47.936;8.716;2023-02-01T13:19:49;2.50;75.00
11229;DHT22;5671;47.936;8.716;2023-02-01T13:22:20;2.50;75.20
11229;DHT22;5671;47.936;8.716;2023-02-01T13:24:53;2.50;74.50
11229;DHT22;5671;47.936;8.716;2023-02-01T13:27:26;2.60;75.00
11229;DHT22;5671;47.936;8.716;2023-02-01T13:29:57;2.70;73.30
11229;DHT22;5671;47.936;8.716;2023-02-01T13:32:46;2.80;73.40
11229;DHT22;5671;47.936;8.716;2023-02-01T13:35:45;3.20;71.40
11229;DHT22;5671;47.936;8.716;2023-02-01T13:38:47;3.50;70.40
11229;DHT22;5671;47.936;8.716;2023-02-01T13:41:25;3.50;68.80
11229;DHT22;5671;47.936;8.716;2023-02-01T13:43:57;3.40;68.40
11229;DHT22;5671;47.936;8.716;2023-02-01T13:46:26;3.30;68.40
11229;DHT22;5671;47.936;8.716;2023-02-01T13:48:55;3.20;67.80
11229;DHT22;5671;47.936;8.716;2023-02-01T13:51:42;3.20;67.40
11229;DHT22;5671;47.936;8.716;2023-02-01T13:54:26;3.10;69.40
11229;DHT22;5671;47.936;8.716;2023-02-01T13:56:54;3.00;69.40
11229;DHT22;5671;47.936;8.716;2023-02-01T13:59:49;3.00;69.90
11229;DHT22;5671;47.936;8.716;2023-02-01T14:02:46;3.00;69.30
11229;DHT22;5671;47.936;8.716;2023-02-01T14:08:23;2.90;70.10
11229;DHT22;5671;47.936;8.716;2023-02-01T14:10:53;2.80;70.80
11229;DHT22;5671;47.936;8.716;2023-02-01T14:13:27;2.80;70.60
11229;DHT22;5671;47.936;8.716;2023-02-01T14:16:14;2.80;71.50
11229;DHT22;5671;47.936;8.716;2023-02-01T14:19:00;2.70;70.20
11229;DHT22;5671;47.936;8.716;2023-02-01T14:21:29;2.70;71.40
11229;DHT22;5671;47.936;8.716;2023-02-01T14:24:00;2.70;71.20
11229;DHT22;5671;47.936;8.716;2023-02-01T14:26:41;2.70;70.80
11229;DHT22;5671;47.936;8.716;2023-02-01T14:29:33;2.70;71.40
11229;DHT22;5671;47.936;8.716;2023-02-01T14:32:05;2.70;71.20
11229;DHT22;5671;47.936;8.716;2023-02-01T14:34:48;2.70;71.10
11229;DHT22;5671;47.936;8.716;2023-02-01T14:37:24;2.70;70.50
11229;DHT22;5671;47.936;8.716;2023-02-01T14:39:56;2.60;70.20
11229;DHT22;5671;47.936;8.716;2023-02-01T14:42:28;2.60;70.10
11229;DHT22;5671;47.936;8.716;2023-02-01T14:51:07;2.60;71.30
11229;DHT22;5671;47.936;8.716;2023-02-01T14:53:35;2.50;70.10
11229;DHT22;5671;47.936;8.716;2023-02-01T14:56:08;2.50;70.50
11229;DHT22;5671;47.936;8.716;2023-02-01T14:58:45;2.50;70.50
11229;DHT22;5671;47.936;8.716;2023-02-01T15:01:17;2.50;70.00
11229;DHT22;5671;47.936;8.716;2023-02-01T15:03:51;2.40;70.60
11229;DHT22;5671;47.936;8.716;2023-02-01T15:06:30;2.40;71.50
11229;DHT22;5671;47.936;8.716;2023-02-01T15:09:01;2.40;71.20
11229;DHT22;5671;47.936;8.716;2023-02-01T15:11:28;2.30;71.50
11229;DHT22;5671;47.936;8.716;2023-02-01T15:13:56;2.30;71.20
11229;DHT22;5671;47.936;8.716;2023-02-01T15:16:25;2.30;71.60
11229;DHT22;5671;47.936;8.716;2023-02-01T15:19:07;2.30;71.60
11229;DHT22;5671;47.936;8.716;2023-02-01T15:21:44;2.20;71.50
11229;DHT22;5671;47.936;8.716;2023-02-01T15:24:12;2.20;71.70
11229;DHT22;5671;47.936;8.716;2023-02-01T15:26:40;2.20;71.70
11229;DHT22;5671;47.936;8.716;2023-02-01T15:29:11;2.20;72.10
11229;DHT22;5671;47.936;8.716;2023-02-01T15:31:40;2.20;71.20
11229;DHT22;5671;47.936;8.716;2023-02-01T15:34:07;2.20;72.00
11229;DHT22;5671;47.936;8.716;2023-02-01T15:36:34;2.10;71.40
11229;DHT22;5671;47.936;8.716;2023-02-01T15:39:18;2.10;72.10
11229;DHT22;5671;47.936;8.716;2023-02-01T15:41:50;2.10;71.90
11229;DHT22;5671;47.936;8.716;2023-02-01T15:44:20;2.10;72.30
11229;DHT22;5671;47.936;8.716;2023-02-01T15:46:49;2.00;72.30
11229;DHT22;5671;47.936;8.716;2023-02-01T15:49:20;2.00;71.90
11229;DHT22;5671;47.936;8.716;2023-02-01T15:51:50;2.00;72.00
11229;DHT22;5671;47.936;8.716;2023-02-01T15:54:24;2.00;72.40
11229;DHT22;5671;47.936;8.716;2023-02-01T15:56:53;2.00;71.90
11229;DHT22;5671;47.936;8.716;2023-02-01T15:59:24;2.00;72.60
11229;DHT22;5671;47.936;8.716;2023-02-01T16:01:52;1.90;72.10
11229;DHT22;5671;47.936;8.716;2023-02-01T16:04:21;1.90;72.60
11229;DHT22;5671;47.936;8.716;2023-02-01T16:06:50;1.90;71.90
11229;DHT22;5671;47.936;8.716;2023-02-01T16:09:21;1.90;72.40
11229;DHT22;5671;47.936;8.716;2023-02-01T16:11:54;1.90;72.20
11229;DHT22;5671;47.936;8.716;2023-02-01T16:14:22;1.90;72.50
11229;DHT22;5671;47.936;8.716;2023-02-01T16:16:49;1.80;73.00
11229;DHT22;5671;47.936;8.716;2023-02-01T16:19:16;1.80;72.60
11229;DHT22;5671;47.936;8.716;2023-02-01T16:21:43;1.80;73.20
11229;DHT22;5671;47.936;8.716;2023-02-01T16:24:11;1.80;73.00
11229;DHT22;5671;47.936;8.716;2023-02-01T16:26:39;1.80;73.50
11229;DHT22;5671;47.936;8.716;2023-02-01T16:29:06;1.80;73.30
11229;DHT22;5671;47.936;8.716;2023-02-01T16:31:38;1.80;73.50
11229;DHT22;5671;47.936;8.716;2023-02-01T16:34:06;1.70;73.20
11229;DHT22;5671;47.936;8.716;2023-02-01T16:36:33;1.70;73.50
11229;DHT22;5671;47.936;8.716;2023-02-01T16:39:00;1.70;73.70
11229;DHT22;5671;47.936;8.716;2023-02-01T16:41:28;1.70;73.90